Rogerslacy, Texas
Current Conditions -  °F | °C
As of 10:15 AM on Thursday 27 Nov 2014 (Local Time) from KT65 Reporting Station
Clear Clear  
Wind Chill: 69°   Ceiling: Unl
Heat Index: 69°   Visibility: 7mi
Dew Point: 51°   Wind: 3mph
Humidity: 53%   Direction: 210°SSW
Pressure: 30.44"   Gusts: NA
Location:  26.2692°N, 97.8326°W
Report Text: KT65 271615Z AUTO 21003KT 7SM CLR 21/11 A3044 RMK AO2 T02050106
Loading
Personal Weather Stations






























Interactive Weather Map New forecast layout! Learn more

10-Day Weather Forecast

Advertisements
Track Severe Weather on mobile